sensor_id;sensor_type;location;lat;lon;timestamp;noise_LAeq;noise_LA_min;noise_LA_max;noise_LA01;noise_LA95
72028;Laerm;59781;52.090;5.030;2023-01-10T00:00:39;42.29;38.21;49.13;;
72028;Laerm;59781;52.090;5.030;2023-01-10T00:03:28;40.24;37.17;47.98;;
72028;Laerm;59781;52.090;5.030;2023-01-10T00:06:26;42.44;38.13;48.09;;
72028;Laerm;59781;52.090;5.030;2023-01-10T00:08:52;40.56;38.00;45.09;;
72028;Laerm;59781;52.090;5.030;2023-01-10T00:11:18;40.92;38.12;48.34;;
72028;Laerm;59781;52.090;5.030;2023-01-10T00:14:28;40.18;36.75;46.55;;
72028;Laerm;59781;52.090;5.030;2023-01-10T00:17:25;41.75;37.72;49.70;;
72028;Laerm;59781;52.090;5.030;2023-01-10T00:19:51;41.45;37.79;49.91;;
72028;Laerm;59781;52.090;5.030;2023-01-10T00:22:16;40.42;37.50;44.52;;
72028;Laerm;59781;52.090;5.030;2023-01-10T00:24:44;40.45;36.87;47.08;;
72028;Laerm;59781;52.090;5.030;2023-01-10T00:27:10;40.72;37.55;48.50;;
72028;Laerm;59781;52.090;5.030;2023-01-10T00:29:49;40.89;37.57;47.14;;
72028;Laerm;59781;52.090;5.030;2023-01-10T00:32:20;42.20;38.15;46.91;;
72028;Laerm;59781;52.090;5.030;2023-01-10T00:34:46;41.30;38.20;46.47;;
72028;Laerm;59781;52.090;5.030;2023-01-10T00:37:54;40.58;37.30;52.41;;
72028;Laerm;59781;52.090;5.030;2023-01-10T00:40:56;40.82;37.22;68.92;;
72028;Laerm;59781;52.090;5.030;2023-01-10T00:43:22;49.75;39.91;76.04;;
72028;Laerm;59781;52.090;5.030;2023-01-10T00:46:28;46.51;38.87;69.20;;
72028;Laerm;59781;52.090;5.030;2023-01-10T00:49:21;42.05;37.76;66.13;;
72028;Laerm;59781;52.090;5.030;2023-01-10T00:51:47;40.54;37.65;49.19;;
72028;Laerm;59781;52.090;5.030;2023-01-10T00:54:14;41.44;37.85;62.74;;
72028;Laerm;59781;52.090;5.030;2023-01-10T00:56:47;51.35;39.20;77.88;;
72028;Laerm;59781;52.090;5.030;2023-01-10T01:00:12;48.59;37.93;78.34;;
72028;Laerm;59781;52.090;5.030;2023-01-10T01:02:38;40.16;37.19;61.77;;
72028;Laerm;59781;52.090;5.030;2023-01-10T01:05:24;41.07;36.90;59.21;;
72028;Laerm;59781;52.090;5.030;2023-01-10T01:08:29;51.60;37.02;78.13;;
72028;Laerm;59781;52.090;5.030;2023-01-10T01:10:55;40.80;36.89;66.33;;
72028;Laerm;59781;52.090;5.030;2023-01-10T01:13:21;44.49;37.34;70.39;;
72028;Laerm;59781;52.090;5.030;2023-01-10T01:16:38;51.64;37.13;81.68;;
72028;Laerm;59781;52.090;5.030;2023-01-10T01:22:31;41.24;37.45;66.55;;
72028;Laerm;59781;52.090;5.030;2023-01-10T01:24:57;48.44;38.67;74.98;;
72028;Laerm;59781;52.090;5.030;2023-01-10T01:27:23;54.10;39.92;82.31;;
72028;Laerm;59781;52.090;5.030;2023-01-10T01:29:49;47.25;38.30;76.92;;
72028;Laerm;59781;52.090;5.030;2023-01-10T01:32:15;44.05;36.92;70.79;;
72028;Laerm;59781;52.090;5.030;2023-01-10T01:35:48;47.18;38.29;74.46;;
72028;Laerm;59781;52.090;5.030;2023-01-10T01:39:59;41.34;37.94;56.17;;
72028;Laerm;59781;52.090;5.030;2023-01-10T01:48:18;40.97;37.87;51.00;;
72028;Laerm;59781;52.090;5.030;2023-01-10T01:50:53;42.55;38.51;66.60;;
72028;Laerm;59781;52.090;5.030;2023-01-10T01:53:59;40.62;36.26;47.53;;
72028;Laerm;59781;52.090;5.030;2023-01-10T01:57:33;40.65;37.61;48.81;;
72028;Laerm;59781;52.090;5.030;2023-01-10T02:00:15;40.97;37.85;46.93;;
72028;Laerm;59781;52.090;5.030;2023-01-10T02:03:22;40.97;37.67;49.67;;
72028;Laerm;59781;52.090;5.030;2023-01-10T02:07:17;41.99;37.89;49.75;;
72028;Laerm;59781;52.090;5.030;2023-01-10T02:12:42;40.05;37.37;44.90;;
72028;Laerm;59781;52.090;5.030;2023-01-10T02:15:24;40.75;37.81;47.60;;
72028;Laerm;59781;52.090;5.030;2023-01-10T02:17:51;39.51;37.34;45.75;;
72028;Laerm;59781;52.090;5.030;2023-01-10T02:42:18;42.06;37.99;48.12;;
72028;Laerm;59781;52.090;5.030;2023-01-10T02:45:48;41.84;37.38;70.38;;
72028;Laerm;59781;52.090;5.030;2023-01-10T02:48:52;41.34;37.82;52.35;;
72028;Laerm;59781;52.090;5.030;2023-01-10T02:51:49;41.89;38.11;53.43;;
72028;Laerm;59781;52.090;5.030;2023-01-10T02:54:50;41.26;37.88;47.14;;
72028;Laerm;59781;52.090;5.030;2023-01-10T03:07:33;41.73;38.39;58.24;;
72028;Laerm;59781;52.090;5.030;2023-01-10T03:10:15;42.16;39.02;61.49;;
72028;Laerm;59781;52.090;5.030;2023-01-10T03:13:50;41.53;37.41;48.09;;
72028;Laerm;59781;52.090;5.030;2023-01-10T03:16:26;42.17;37.99;57.16;;
72028;Laerm;59781;52.090;5.030;2023-01-10T03:19:00;41.76;38.39;48.24;;
72028;Laerm;59781;52.090;5.030;2023-01-10T03:21:50;44.31;38.15;71.71;;
72028;Laerm;59781;52.090;5.030;2023-01-10T03:25:27;42.96;38.41;58.13;;
72028;Laerm;59781;52.090;5.030;2023-01-10T03:28:55;43.24;39.57;59.78;;
72028;Laerm;59781;52.090;5.030;2023-01-10T03:31:39;42.41;38.83;56.67;;
72028;Laerm;59781;52.090;5.030;2023-01-10T03:34:27;42.60;37.80;61.29;;
72028;Laerm;59781;52.090;5.030;2023-01-10T03:37:13;42.09;39.21;52.21;;
72028;Laerm;59781;52.090;5.030;2023-01-10T03:39:52;42.28;38.25;55.34;;
72028;Laerm;59781;52.090;5.030;2023-01-10T03:42:44;42.19;39.03;47.62;;
72028;Laerm;59781;52.090;5.030;2023-01-10T03:45:57;42.77;38.87;48.58;;
72028;Laerm;59781;52.090;5.030;2023-01-10T03:48:32;42.55;38.81;48.00;;
72028;Laerm;59781;52.090;5.030;2023-01-10T03:51:04;42.12;37.88;50.65;;
72028;Laerm;59781;52.090;5.030;2023-01-10T03:53:36;42.44;38.81;48.01;;
72028;Laerm;59781;52.090;5.030;2023-01-10T03:56:03;41.15;38.36;55.14;;
72028;Laerm;59781;52.090;5.030;2023-01-10T03:58:29;42.42;38.75;47.64;;
72028;Laerm;59781;52.090;5.030;2023-01-10T04:00:55;41.96;39.11;45.65;;
72028;Laerm;59781;52.090;5.030;2023-01-10T04:03:21;41.47;38.32;46.48;;
72028;Laerm;59781;52.090;5.030;2023-01-10T04:05:46;42.21;38.74;51.39;;
72028;Laerm;59781;52.090;5.030;2023-01-10T04:08:12;41.97;38.79;46.42;;
72028;Laerm;59781;52.090;5.030;2023-01-10T04:10:38;42.96;39.88;49.15;;
72028;Laerm;59781;52.090;5.030;2023-01-10T04:13:04;43.04;39.53;49.96;;
72028;Laerm;59781;52.090;5.030;2023-01-10T04:15:31;44.40;39.52;50.36;;
72028;Laerm;59781;52.090;5.030;2023-01-10T04:17:57;43.75;39.82;50.72;;
72028;Laerm;59781;52.090;5.030;2023-01-10T04:20:23;43.12;39.78;47.41;;
72028;Laerm;59781;52.090;5.030;2023-01-10T04:22:52;44.21;40.12;49.65;;
72028;Laerm;59781;52.090;5.030;2023-01-10T04:25:22;43.49;40.16;48.64;;
72028;Laerm;59781;52.090;5.030;2023-01-10T04:28:12;44.25;40.41;50.77;;
72028;Laerm;59781;52.090;5.030;2023-01-10T04:30:38;44.49;40.41;48.62;;
72028;Laerm;59781;52.090;5.030;2023-01-10T04:33:04;45.42;41.47;50.03;;
72028;Laerm;59781;52.090;5.030;2023-01-10T04:36:21;46.35;42.01;53.87;;
72028;Laerm;59781;52.090;5.030;2023-01-10T04:38:47;45.65;41.54;51.97;;
72028;Laerm;59781;52.090;5.030;2023-01-10T04:41:12;45.48;40.93;50.44;;
72028;Laerm;59781;52.090;5.030;2023-01-10T04:44:20;45.22;41.03;51.08;;
72028;Laerm;59781;52.090;5.030;2023-01-10T04:46:46;45.21;42.26;49.94;;
72028;Laerm;59781;52.090;5.030;2023-01-10T04:49:12;45.06;41.59;49.36;;
72028;Laerm;59781;52.090;5.030;2023-01-10T04:51:37;45.55;42.06;50.63;;
72028;Laerm;59781;52.090;5.030;2023-01-10T04:54:03;45.36;41.40;52.46;;
72028;Laerm;59781;52.090;5.030;2023-01-10T04:56:29;45.16;41.81;49.89;;
72028;Laerm;59781;52.090;5.030;2023-01-10T04:58:55;45.08;41.80;49.19;;
72028;Laerm;59781;52.090;5.030;2023-01-10T05:01:24;45.13;42.24;49.29;;
72028;Laerm;59781;52.090;5.030;2023-01-10T05:03:53;45.10;42.19;49.56;;
72028;Laerm;59781;52.090;5.030;2023-01-10T05:06:21;45.58;42.39;50.04;;
72028;Laerm;59781;52.090;5.030;2023-01-10T05:08:48;45.53;42.58;48.67;;
72028;Laerm;59781;52.090;5.030;2023-01-10T05:11:14;45.53;42.15;49.78;;
72028;Laerm;59781;52.090;5.030;2023-01-10T05:13:40;45.64;42.14;67.26;;
72028;Laerm;59781;52.090;5.030;2023-01-10T05:16:06;43.95;40.80;47.08;;
72028;Laerm;59781;52.090;5.030;2023-01-10T05:19:12;44.47;41.18;49.52;;
72028;Laerm;59781;52.090;5.030;2023-01-10T05:21:38;44.58;41.30;48.77;;
72028;Laerm;59781;52.090;5.030;2023-01-10T05:24:04;45.46;41.80;50.94;;
72028;Laerm;59781;52.090;5.030;2023-01-10T05:26:38;46.23;42.86;51.26;;
72028;Laerm;59781;52.090;5.030;2023-01-10T05:29:04;47.23;43.67;59.68;;
72028;Laerm;59781;52.090;5.030;2023-01-10T05:31:54;47.12;44.10;51.90;;
72028;Laerm;59781;52.090;5.030;2023-01-10T05:34:20;48.72;45.32;53.78;;
72028;Laerm;59781;52.090;5.030;2023-01-10T05:36:51;48.98;45.05;55.99;;
72028;Laerm;59781;52.090;5.030;2023-01-10T05:39:17;48.89;45.36;52.92;;
72028;Laerm;59781;52.090;5.030;2023-01-10T05:41:43;49.26;45.41;54.34;;
72028;Laerm;59781;52.090;5.030;2023-01-10T05:44:09;49.23;45.67;65.39;;
72028;Laerm;59781;52.090;5.030;2023-01-10T05:46:34;49.99;46.09;53.55;;
72028;Laerm;59781;52.090;5.030;2023-01-10T05:49:00;50.22;46.67;59.12;;
72028;Laerm;59781;52.090;5.030;2023-01-10T05:51:26;51.51;47.64;58.34;;
72028;Laerm;59781;52.090;5.030;2023-01-10T05:53:51;50.22;46.20;56.28;;
72028;Laerm;59781;52.090;5.030;2023-01-10T05:56:17;51.13;47.31;55.47;;
72028;Laerm;59781;52.090;5.030;2023-01-10T05:58:44;51.16;47.02;54.88;;
72028;Laerm;59781;52.090;5.030;2023-01-10T06:01:11;49.86;45.88;55.92;;
72028;Laerm;59781;52.090;5.030;2023-01-10T06:03:58;49.38;44.64;53.17;;
72028;Laerm;59781;52.090;5.030;2023-01-10T06:06:25;49.33;45.14;54.19;;
72028;Laerm;59781;52.090;5.030;2023-01-10T06:08:50;49.85;46.15;57.23;;
72028;Laerm;59781;52.090;5.030;2023-01-10T06:11:19;48.63;45.59;52.87;;
72028;Laerm;59781;52.090;5.030;2023-01-10T06:13:45;47.54;44.04;51.55;;
72028;Laerm;59781;52.090;5.030;2023-01-10T06:16:13;49.01;44.39;53.61;;
72028;Laerm;59781;52.090;5.030;2023-01-10T06:18:39;48.55;44.92;54.30;;
72028;Laerm;59781;52.090;5.030;2023-01-10T06:21:04;47.38;44.00;53.34;;
72028;Laerm;59781;52.090;5.030;2023-01-10T06:23:30;47.83;44.96;51.56;;
72028;Laerm;59781;52.090;5.030;2023-01-10T06:25:56;47.90;44.67;52.14;;
72028;Laerm;59781;52.090;5.030;2023-01-10T06:28:21;48.45;45.27;51.80;;
72028;Laerm;59781;52.090;5.030;2023-01-10T06:30:47;47.36;43.94;50.87;;
72028;Laerm;59781;52.090;5.030;2023-01-10T06:33:16;47.44;44.06;54.75;;
72028;Laerm;59781;52.090;5.030;2023-01-10T06:35:42;48.01;44.94;54.52;;
72028;Laerm;59781;52.090;5.030;2023-01-10T06:38:08;48.29;45.27;53.62;;
72028;Laerm;59781;52.090;5.030;2023-01-10T06:40:33;49.28;45.87;66.52;;
72028;Laerm;59781;52.090;5.030;2023-01-10T06:43:02;48.96;45.75;56.63;;
72028;Laerm;59781;52.090;5.030;2023-01-10T06:45:28;49.49;46.24;57.82;;
72028;Laerm;59781;52.090;5.030;2023-01-10T06:47:53;50.41;46.87;54.97;;
72028;Laerm;59781;52.090;5.030;2023-01-10T06:50:19;49.75;46.53;64.09;;
72028;Laerm;59781;52.090;5.030;2023-01-10T06:52:45;49.78;46.46;53.34;;
72028;Laerm;59781;52.090;5.030;2023-01-10T06:55:11;50.52;47.47;53.51;;
72028;Laerm;59781;52.090;5.030;2023-01-10T06:57:36;50.31;47.13;57.39;;
72028;Laerm;59781;52.090;5.030;2023-01-10T07:00:08;50.83;46.89;56.41;;
72028;Laerm;59781;52.090;5.030;2023-01-10T07:02:34;51.22;46.33;65.06;;
72028;Laerm;59781;52.090;5.030;2023-01-10T07:05:08;50.26;46.05;66.03;;
72028;Laerm;59781;52.090;5.030;2023-01-10T07:07:34;50.05;46.01;55.76;;
72028;Laerm;59781;52.090;5.030;2023-01-10T07:10:00;49.80;45.73;57.31;;
72028;Laerm;59781;52.090;5.030;2023-01-10T07:12:26;48.89;45.35;54.40;;
72028;Laerm;59781;52.090;5.030;2023-01-10T07:14:52;48.74;45.46;52.72;;
72028;Laerm;59781;52.090;5.030;2023-01-10T07:17:17;49.19;45.56;55.68;;
72028;Laerm;59781;52.090;5.030;2023-01-10T07:19:43;50.27;46.56;53.52;;
72028;Laerm;59781;52.090;5.030;2023-01-10T07:22:11;49.96;46.65;61.75;;
72028;Laerm;59781;52.090;5.030;2023-01-10T07:24:41;50.22;46.39;64.35;;
72028;Laerm;59781;52.090;5.030;2023-01-10T07:27:06;49.21;45.65;59.04;;
72028;Laerm;59781;52.090;5.030;2023-01-10T07:29:32;48.48;45.23;54.15;;
72028;Laerm;59781;52.090;5.030;2023-01-10T07:31:58;49.54;46.39;69.37;;
72028;Laerm;59781;52.090;5.030;2023-01-10T07:34:34;50.81;46.51;59.77;;
72028;Laerm;59781;52.090;5.030;2023-01-10T07:37:01;50.26;46.66;68.93;;
72028;Laerm;59781;52.090;5.030;2023-01-10T07:39:29;49.85;46.53;62.82;;
72028;Laerm;59781;52.090;5.030;2023-01-10T07:42:01;51.94;46.98;63.85;;
72028;Laerm;59781;52.090;5.030;2023-01-10T07:44:27;51.33;47.28;62.49;;
72028;Laerm;59781;52.090;5.030;2023-01-10T07:46:55;49.87;45.97;58.75;;
72028;Laerm;59781;52.090;5.030;2023-01-10T07:49:21;50.27;46.25;60.19;;
72028;Laerm;59781;52.090;5.030;2023-01-10T07:51:46;50.29;46.80;55.61;;
72028;Laerm;59781;52.090;5.030;2023-01-10T07:54:12;51.31;47.83;56.42;;
72028;Laerm;59781;52.090;5.030;2023-01-10T07:56:43;50.40;46.76;57.67;;
72028;Laerm;59781;52.090;5.030;2023-01-10T07:59:29;49.59;45.99;56.68;;
72028;Laerm;59781;52.090;5.030;2023-01-10T08:02:53;51.25;47.12;65.76;;
72028;Laerm;59781;52.090;5.030;2023-01-10T08:05:20;51.78;47.80;60.93;;
72028;Laerm;59781;52.090;5.030;2023-01-10T08:07:46;52.45;48.59;62.21;;
72028;Laerm;59781;52.090;5.030;2023-01-10T08:10:11;53.10;49.07;67.37;;
72028;Laerm;59781;52.090;5.030;2023-01-10T08:13:00;50.54;46.73;53.86;;
72028;Laerm;59781;52.090;5.030;2023-01-10T08:16:28;51.30;46.48;57.21;;
72028;Laerm;59781;52.090;5.030;2023-01-10T08:18:54;49.94;46.26;57.75;;
72028;Laerm;59781;52.090;5.030;2023-01-10T08:21:20;49.32;46.10;53.80;;
72028;Laerm;59781;52.090;5.030;2023-01-10T08:23:46;49.71;45.40;58.98;;
72028;Laerm;59781;52.090;5.030;2023-01-10T08:26:11;49.24;45.42;57.98;;
72028;Laerm;59781;52.090;5.030;2023-01-10T08:29:37;50.24;45.46;54.30;;
72028;Laerm;59781;52.090;5.030;2023-01-10T08:32:45;49.32;45.38;63.07;;
72028;Laerm;59781;52.090;5.030;2023-01-10T08:35:42;50.20;46.69;65.07;;
72028;Laerm;59781;52.090;5.030;2023-01-10T08:38:10;49.82;45.74;59.59;;
72028;Laerm;59781;52.090;5.030;2023-01-10T08:42:09;49.87;46.18;57.16;;
72028;Laerm;59781;52.090;5.030;2023-01-10T08:45:17;50.11;46.12;57.22;;
72028;Laerm;59781;52.090;5.030;2023-01-10T08:47:43;49.53;46.10;56.63;;
72028;Laerm;59781;52.090;5.030;2023-01-10T08:50:29;48.57;44.67;59.44;;
72028;Laerm;59781;52.090;5.030;2023-01-10T08:53:25;48.58;45.13;59.76;;
72028;Laerm;59781;52.090;5.030;2023-01-10T08:56:36;48.79;45.39;62.67;;
72028;Laerm;59781;52.090;5.030;2023-01-10T08:59:27;48.35;44.88;51.56;;
72028;Laerm;59781;52.090;5.030;2023-01-10T09:01:53;48.51;44.71;52.03;;
72028;Laerm;59781;52.090;5.030;2023-01-10T09:04:18;49.12;45.48;55.87;;
72028;Laerm;59781;52.090;5.030;2023-01-10T09:06:44;48.94;45.14;55.06;;
72028;Laerm;59781;52.090;5.030;2023-01-10T09:09:10;49.10;45.66;55.48;;
72028;Laerm;59781;52.090;5.030;2023-01-10T09:11:35;49.53;45.09;67.83;;
72028;Laerm;59781;52.090;5.030;2023-01-10T09:14:06;49.40;45.61;62.01;;
72028;Laerm;59781;52.090;5.030;2023-01-10T09:16:41;48.64;45.07;52.27;;
72028;Laerm;59781;52.090;5.030;2023-01-10T09:19:07;48.38;44.89;59.27;;
72028;Laerm;59781;52.090;5.030;2023-01-10T09:21:35;49.75;45.19;69.72;;
72028;Laerm;59781;52.090;5.030;2023-01-10T09:24:01;48.17;45.04;53.18;;
72028;Laerm;59781;52.090;5.030;2023-01-10T09:27:09;48.63;45.38;59.28;;
72028;Laerm;59781;52.090;5.030;2023-01-10T09:30:09;48.71;45.20;54.59;;
72028;Laerm;59781;52.090;5.030;2023-01-10T09:32:35;48.66;44.86;52.69;;
72028;Laerm;59781;52.090;5.030;2023-01-10T09:35:29;47.55;43.97;53.68;;
72028;Laerm;59781;52.090;5.030;2023-01-10T09:38:37;47.72;43.75;53.54;;
72028;Laerm;59781;52.090;5.030;2023-01-10T09:42:04;49.20;45.02;71.72;;
72028;Laerm;59781;52.090;5.030;2023-01-10T09:45:24;47.93;43.76;70.98;;
72028;Laerm;59781;52.090;5.030;2023-01-10T09:48:09;47.96;44.07;63.54;;
72028;Laerm;59781;52.090;5.030;2023-01-10T09:51:03;48.20;44.64;54.42;;
72028;Laerm;59781;52.090;5.030;2023-01-10T09:53:40;48.02;43.81;63.02;;
72028;Laerm;59781;52.090;5.030;2023-01-10T09:56:08;48.00;44.69;56.50;;
72028;Laerm;59781;52.090;5.030;2023-01-10T09:58:44;49.02;44.58;64.83;;
72028;Laerm;59781;52.090;5.030;2023-01-10T10:01:35;48.21;44.88;61.05;;
72028;Laerm;59781;52.090;5.030;2023-01-10T10:04:22;47.40;43.74;57.96;;
72028;Laerm;59781;52.090;5.030;2023-01-10T10:06:50;49.42;44.08;68.38;;
72028;Laerm;59781;52.090;5.030;2023-01-10T10:09:24;48.19;44.60;65.59;;
72028;Laerm;59781;52.090;5.030;2023-01-10T10:15:30;52.45;44.11;66.20;;
72028;Laerm;59781;52.090;5.030;2023-01-10T10:19:04;48.30;44.41;59.66;;
72028;Laerm;59781;52.090;5.030;2023-01-10T10:22:01;47.79;44.29;61.82;;
72028;Laerm;59781;52.090;5.030;2023-01-10T10:25:17;47.98;42.90;66.94;;
72028;Laerm;59781;52.090;5.030;2023-01-10T10:34:15;47.08;43.08;58.54;;
72028;Laerm;59781;52.090;5.030;2023-01-10T10:36:55;48.22;44.42;61.34;;
72028;Laerm;59781;52.090;5.030;2023-01-10T10:39:36;47.46;43.86;62.09;;
72028;Laerm;59781;52.090;5.030;2023-01-10T10:42:35;47.39;43.65;65.12;;
72028;Laerm;59781;52.090;5.030;2023-01-10T10:48:16;48.39;44.13;67.02;;
72028;Laerm;59781;52.090;5.030;2023-01-10T10:51:48;48.49;43.94;64.40;;
72028;Laerm;59781;52.090;5.030;2023-01-10T10:54:15;47.98;44.21;65.56;;
72028;Laerm;59781;52.090;5.030;2023-01-10T10:56:43;48.01;44.67;53.24;;
72028;Laerm;59781;52.090;5.030;2023-01-10T10:59:18;47.94;44.16;58.32;;
72028;Laerm;59781;52.090;5.030;2023-01-10T11:02:31;47.59;44.02;55.68;;
72028;Laerm;59781;52.090;5.030;2023-01-10T11:05:05;48.71;44.38;63.46;;
72028;Laerm;59781;52.090;5.030;2023-01-10T11:07:35;47.62;43.44;61.27;;
72028;Laerm;59781;52.090;5.030;2023-01-10T11:10:13;50.74;44.70;75.06;;
72028;Laerm;59781;52.090;5.030;2023-01-10T11:12:49;48.13;44.15;63.75;;
72028;Laerm;59781;52.090;5.030;2023-01-10T11:15:39;48.50;43.41;71.35;;
72028;Laerm;59781;52.090;5.030;2023-01-10T11:18:28;48.96;44.37;61.98;;
72028;Laerm;59781;52.090;5.030;2023-01-10T11:21:16;47.47;44.00;58.57;;
72028;Laerm;59781;52.090;5.030;2023-01-10T11:24:12;46.80;43.54;55.14;;
72028;Laerm;59781;52.090;5.030;2023-01-10T11:26:43;47.62;44.56;55.70;;
72028;Laerm;59781;52.090;5.030;2023-01-10T11:29:42;47.27;43.82;61.82;;
72028;Laerm;59781;52.090;5.030;2023-01-10T11:32:32;48.20;44.26;52.66;;
72028;Laerm;59781;52.090;5.030;2023-01-10T11:35:55;51.25;44.89;78.58;;
72028;Laerm;59781;52.090;5.030;2023-01-10T11:38:22;48.89;45.36;67.38;;
72028;Laerm;59781;52.090;5.030;2023-01-10T11:41:01;48.41;45.25;56.46;;
72028;Laerm;59781;52.090;5.030;2023-01-10T11:43:39;50.03;45.31;59.85;;
72028;Laerm;59781;52.090;5.030;2023-01-10T11:46:23;47.86;43.84;65.65;;
72028;Laerm;59781;52.090;5.030;2023-01-10T11:49:10;49.52;43.89;76.04;;
72028;Laerm;59781;52.090;5.030;2023-01-10T11:51:47;47.78;44.80;62.27;;
72028;Laerm;59781;52.090;5.030;2023-01-10T11:54:22;48.22;45.00;61.77;;
72028;Laerm;59781;52.090;5.030;2023-01-10T11:57:18;47.97;44.37;63.26;;
72028;Laerm;59781;52.090;5.030;2023-01-10T12:02:31;49.11;44.72;65.37;;
72028;Laerm;59781;52.090;5.030;2023-01-10T12:05:04;48.07;45.21;63.79;;
72028;Laerm;59781;52.090;5.030;2023-01-10T12:08:23;49.44;44.83;69.25;;
72028;Laerm;59781;52.090;5.030;2023-01-10T12:11:23;50.15;44.12;72.74;;
72028;Laerm;59781;52.090;5.030;2023-01-10T12:13:59;49.50;45.82;58.44;;
72028;Laerm;59781;52.090;5.030;2023-01-10T12:16:32;50.86;45.38;72.01;;
72028;Laerm;59781;52.090;5.030;2023-01-10T12:19:08;49.23;45.73;64.22;;
72028;Laerm;59781;52.090;5.030;2023-01-10T12:21:43;49.34;45.23;67.97;;
72028;Laerm;59781;52.090;5.030;2023-01-10T12:24:30;52.57;45.11;74.78;;
72028;Laerm;59781;52.090;5.030;2023-01-10T12:27:21;48.24;44.60;55.92;;
72028;Laerm;59781;52.090;5.030;2023-01-10T12:32:40;48.53;45.44;57.03;;
72028;Laerm;59781;52.090;5.030;2023-01-10T12:35:20;48.94;45.44;63.98;;
72028;Laerm;59781;52.090;5.030;2023-01-10T12:41:06;48.33;44.91;65.10;;
72028;Laerm;59781;52.090;5.030;2023-01-10T12:43:43;49.11;45.52;62.91;;
72028;Laerm;59781;52.090;5.030;2023-01-10T12:46:46;49.71;46.05;63.91;;
72028;Laerm;59781;52.090;5.030;2023-01-10T12:49:29;50.56;45.50;63.39;;
72028;Laerm;59781;52.090;5.030;2023-01-10T12:52:11;50.44;46.50;60.43;;
72028;Laerm;59781;52.090;5.030;2023-01-10T12:54:38;50.09;45.75;63.53;;
72028;Laerm;59781;52.090;5.030;2023-01-10T12:57:29;49.00;45.85;58.81;;
72028;Laerm;59781;52.090;5.030;2023-01-10T13:00:02;49.51;45.85;65.95;;
72028;Laerm;59781;52.090;5.030;2023-01-10T13:02:41;55.40;45.37;78.84;;
72028;Laerm;59781;52.090;5.030;2023-01-10T13:05:21;49.14;44.86;64.76;;
72028;Laerm;59781;52.090;5.030;2023-01-10T13:07:52;50.16;45.27;70.77;;
72028;Laerm;59781;52.090;5.030;2023-01-10T13:10:22;48.70;44.97;56.22;;
72028;Laerm;59781;52.090;5.030;2023-01-10T13:13:42;51.56;45.07;75.48;;
72028;Laerm;59781;52.090;5.030;2023-01-10T13:21:35;48.86;44.76;61.43;;
72028;Laerm;59781;52.090;5.030;2023-01-10T13:24:23;59.77;45.81;77.45;;
72028;Laerm;59781;52.090;5.030;2023-01-10T13:27:33;49.28;45.90;63.71;;
72028;Laerm;59781;52.090;5.030;2023-01-10T13:30:02;50.75;46.05;71.55;;
72028;Laerm;59781;52.090;5.030;2023-01-10T13:33:02;54.91;45.13;80.19;;
72028;Laerm;59781;52.090;5.030;2023-01-10T13:35:41;49.26;45.04;66.59;;
72028;Laerm;59781;52.090;5.030;2023-01-10T13:38:38;49.34;44.91;66.37;;
72028;Laerm;59781;52.090;5.030;2023-01-10T13:41:10;51.07;46.14;70.36;;
72028;Laerm;59781;52.090;5.030;2023-01-10T13:44:11;50.31;45.24;68.56;;
72028;Laerm;59781;52.090;5.030;2023-01-10T13:46:43;53.27;44.16;81.25;;
72028;Laerm;59781;52.090;5.030;2023-01-10T13:52:28;52.67;45.82;76.74;;
72028;Laerm;59781;52.090;5.030;2023-01-10T13:54:57;50.35;46.69;65.71;;
72028;Laerm;59781;52.090;5.030;2023-01-10T14:00:49;52.26;45.43;72.36;;
72028;Laerm;59781;52.090;5.030;2023-01-10T14:04:03;52.03;46.37;73.25;;
72028;Laerm;59781;52.090;5.030;2023-01-10T14:12:06;50.81;45.79;70.88;;
72028;Laerm;59781;52.090;5.030;2023-01-10T14:14:38;50.13;46.86;64.48;;
72028;Laerm;59781;52.090;5.030;2023-01-10T14:17:24;50.70;46.69;69.28;;
72028;Laerm;59781;52.090;5.030;2023-01-10T14:20:16;52.30;46.81;72.71;;
72028;Laerm;59781;52.090;5.030;2023-01-10T14:23:18;54.07;46.90;79.24;;
72028;Laerm;59781;52.090;5.030;2023-01-10T14:25:53;53.93;47.75;77.24;;
72028;Laerm;59781;52.090;5.030;2023-01-10T14:28:28;52.24;47.21;73.09;;
72028;Laerm;59781;52.090;5.030;2023-01-10T14:31:08;57.59;46.87;79.88;;
72028;Laerm;59781;52.090;5.030;2023-01-10T14:33:42;55.48;48.15;81.45;;
72028;Laerm;59781;52.090;5.030;2023-01-10T14:36:19;55.41;47.48;78.44;;
72028;Laerm;59781;52.090;5.030;2023-01-10T14:38:49;55.22;48.46;75.59;;
72028;Laerm;59781;52.090;5.030;2023-01-10T14:41:43;54.68;48.18;76.83;;
72028;Laerm;59781;52.090;5.030;2023-01-10T14:46:47;55.24;48.31;76.78;;
72028;Laerm;59781;52.090;5.030;2023-01-10T14:49:33;63.72;48.90;90.50;;
72028;Laerm;59781;52.090;5.030;2023-01-10T14:54:42;55.85;48.50;78.07;;
72028;Laerm;59781;52.090;5.030;2023-01-10T14:57:20;60.34;47.76;89.18;;
72028;Laerm;59781;52.090;5.030;2023-01-10T14:59:48;56.57;48.42;77.12;;
72028;Laerm;59781;52.090;5.030;2023-01-10T15:02:33;55.91;48.80;79.95;;
72028;Laerm;59781;52.090;5.030;2023-01-10T15:05:20;55.78;48.83;81.46;;
72028;Laerm;59781;52.090;5.030;2023-01-10T15:07:46;53.98;47.51;78.07;;
72028;Laerm;59781;52.090;5.030;2023-01-10T15:10:31;51.77;47.20;75.29;;
72028;Laerm;59781;52.090;5.030;2023-01-10T15:13:04;51.08;46.97;68.08;;
72028;Laerm;59781;52.090;5.030;2023-01-10T15:15:37;61.09;47.49;89.28;;
72028;Laerm;59781;52.090;5.030;2023-01-10T15:18:38;54.48;46.87;75.05;;
72028;Laerm;59781;52.090;5.030;2023-01-10T15:21:06;66.48;47.94;94.17;;
72028;Laerm;59781;52.090;5.030;2023-01-10T15:23:42;58.59;48.30;86.88;;
72028;Laerm;59781;52.090;5.030;2023-01-10T15:26:19;60.75;48.91;81.83;;
72028;Laerm;59781;52.090;5.030;2023-01-10T15:29:10;58.89;48.52;85.27;;
72028;Laerm;59781;52.090;5.030;2023-01-10T15:31:39;58.56;48.34;83.03;;
72028;Laerm;59781;52.090;5.030;2023-01-10T15:34:30;61.69;49.92;85.22;;
72028;Laerm;59781;52.090;5.030;2023-01-10T15:37:01;69.59;51.09;94.70;;
72028;Laerm;59781;52.090;5.030;2023-01-10T15:39:36;62.83;50.78;85.44;;
72028;Laerm;59781;52.090;5.030;2023-01-10T15:42:11;67.11;52.17;94.34;;
72028;Laerm;59781;52.090;5.030;2023-01-10T15:44:49;63.91;51.06;93.20;;
72028;Laerm;59781;52.090;5.030;2023-01-10T15:49:56;60.97;49.62;82.76;;
72028;Laerm;59781;52.090;5.030;2023-01-10T15:52:23;60.78;50.65;81.81;;
72028;Laerm;59781;52.090;5.030;2023-01-10T15:54:49;59.00;49.87;79.50;;
72028;Laerm;59781;52.090;5.030;2023-01-10T15:57:29;61.54;49.89;86.89;;
72028;Laerm;59781;52.090;5.030;2023-01-10T15:59:59;59.71;50.27;82.49;;
72028;Laerm;59781;52.090;5.030;2023-01-10T16:05:06;56.94;49.12;76.82;;
72028;Laerm;59781;52.090;5.030;2023-01-10T16:07:41;54.79;47.83;81.10;;
72028;Laerm;59781;52.090;5.030;2023-01-10T16:10:23;54.34;47.88;75.25;;
72028;Laerm;59781;52.090;5.030;2023-01-10T16:12:50;59.90;48.05;81.93;;
72028;Laerm;59781;52.090;5.030;2023-01-10T16:15:40;61.36;47.64;88.22;;
72028;Laerm;59781;52.090;5.030;2023-01-10T16:18:52;60.46;48.03;87.21;;
72028;Laerm;59781;52.090;5.030;2023-01-10T16:21:17;57.11;47.71;81.41;;
72028;Laerm;59781;52.090;5.030;2023-01-10T16:23:46;56.76;48.59;80.51;;
72028;Laerm;59781;52.090;5.030;2023-01-10T16:26:12;52.13;45.86;73.44;;
72028;Laerm;59781;52.090;5.030;2023-01-10T16:28:59;52.27;47.90;70.62;;